sensor_id;sensor_type;location;lat;lon;timestamp;P1;durP1;ratioP1;P2;durP2;ratioP2
34657;SDS011;20865;43.312;27.152;2023-07-20T00:00:41;9.63;;;6.33;;
34657;SDS011;20865;43.312;27.152;2023-07-20T00:03:12;11.03;;;6.50;;
34657;SDS011;20865;43.312;27.152;2023-07-20T00:05:47;10.57;;;5.93;;
34657;SDS011;20865;43.312;27.152;2023-07-20T00:08:15;14.93;;;6.47;;
34657;SDS011;20865;43.312;27.152;2023-07-20T00:10:46;11.38;;;6.30;;
34657;SDS011;20865;43.312;27.152;2023-07-20T00:13:14;11.50;;;6.53;;
34657;SDS011;20865;43.312;27.152;2023-07-20T00:15:41;10.00;;;6.12;;
34657;SDS011;20865;43.312;27.152;2023-07-20T00:18:09;13.30;;;6.78;;
34657;SDS011;20865;43.312;27.152;2023-07-20T00:20:36;9.88;;;6.10;;
34657;SDS011;20865;43.312;27.152;2023-07-20T00:23:05;13.62;;;6.20;;
34657;SDS011;20865;43.312;27.152;2023-07-20T00:25:33;8.60;;;6.22;;
34657;SDS011;20865;43.312;27.152;2023-07-20T00:28:01;11.48;;;5.97;;
34657;SDS011;20865;43.312;27.152;2023-07-20T00:30:29;10.75;;;6.20;;
34657;SDS011;20865;43.312;27.152;2023-07-20T00:32:56;9.73;;;6.58;;
34657;SDS011;20865;43.312;27.152;2023-07-20T00:35:24;13.78;;;8.33;;
34657;SDS011;20865;43.312;27.152;2023-07-20T00:37:51;10.43;;;6.45;;
34657;SDS011;20865;43.312;27.152;2023-07-20T00:40:19;14.03;;;6.15;;
34657;SDS011;20865;43.312;27.152;2023-07-20T00:42:47;12.43;;;6.42;;
34657;SDS011;20865;43.312;27.152;2023-07-20T00:45:14;8.83;;;6.08;;
34657;SDS011;20865;43.312;27.152;2023-07-20T00:47:42;10.13;;;6.55;;
34657;SDS011;20865;43.312;27.152;2023-07-20T00:50:10;11.33;;;6.17;;
34657;SDS011;20865;43.312;27.152;2023-07-20T00:52:38;7.53;;;5.65;;
34657;SDS011;20865;43.312;27.152;2023-07-20T00:55:06;9.85;;;6.22;;
34657;SDS011;20865;43.312;27.152;2023-07-20T00:57:35;12.05;;;6.10;;
34657;SDS011;20865;43.312;27.152;2023-07-20T01:00:03;16.40;;;6.50;;
34657;SDS011;20865;43.312;27.152;2023-07-20T01:02:32;8.13;;;5.70;;
34657;SDS011;20865;43.312;27.152;2023-07-20T01:05:00;12.33;;;6.20;;
34657;SDS011;20865;43.312;27.152;2023-07-20T01:07:31;11.22;;;6.20;;
34657;SDS011;20865;43.312;27.152;2023-07-20T01:12:39;9.23;;;5.53;;
34657;SDS011;20865;43.312;27.152;2023-07-20T01:15:09;8.93;;;5.70;;
34657;SDS011;20865;43.312;27.152;2023-07-20T01:17:37;9.93;;;5.83;;
34657;SDS011;20865;43.312;27.152;2023-07-20T01:20:12;11.83;;;5.60;;
34657;SDS011;20865;43.312;27.152;2023-07-20T01:30:35;10.40;;;5.10;;
34657;SDS011;20865;43.312;27.152;2023-07-20T01:33:15;11.97;;;4.90;;
34657;SDS011;20865;43.312;27.152;2023-07-20T01:35:44;15.32;;;5.30;;
34657;SDS011;20865;43.312;27.152;2023-07-20T01:38:15;11.97;;;5.05;;
34657;SDS011;20865;43.312;27.152;2023-07-20T01:40:45;14.80;;;4.58;;
34657;SDS011;20865;43.312;27.152;2023-07-20T01:43:12;24.32;;;5.55;;
34657;SDS011;20865;43.312;27.152;2023-07-20T01:45:40;32.45;;;5.83;;
34657;SDS011;20865;43.312;27.152;2023-07-20T01:48:08;16.75;;;5.03;;
34657;SDS011;20865;43.312;27.152;2023-07-20T01:50:35;22.45;;;5.30;;
34657;SDS011;20865;43.312;27.152;2023-07-20T01:53:04;17.10;;;5.30;;
34657;SDS011;20865;43.312;27.152;2023-07-20T01:55:31;28.17;;;4.78;;
34657;SDS011;20865;43.312;27.152;2023-07-20T01:57:59;17.32;;;4.85;;
34657;SDS011;20865;43.312;27.152;2023-07-20T02:00:27;23.00;;;4.70;;
34657;SDS011;20865;43.312;27.152;2023-07-20T02:02:55;26.45;;;4.60;;
34657;SDS011;20865;43.312;27.152;2023-07-20T02:05:22;15.93;;;4.95;;
34657;SDS011;20865;43.312;27.152;2023-07-20T02:07:50;20.97;;;6.17;;
34657;SDS011;20865;43.312;27.152;2023-07-20T02:10:18;21.17;;;4.70;;
34657;SDS011;20865;43.312;27.152;2023-07-20T02:12:46;21.60;;;4.35;;
34657;SDS011;20865;43.312;27.152;2023-07-20T02:15:14;15.78;;;4.58;;
34657;SDS011;20865;43.312;27.152;2023-07-20T02:17:44;17.02;;;4.97;;
34657;SDS011;20865;43.312;27.152;2023-07-20T02:20:12;29.52;;;4.62;;
34657;SDS011;20865;43.312;27.152;2023-07-20T02:22:40;20.00;;;4.65;;
34657;SDS011;20865;43.312;27.152;2023-07-20T02:25:08;16.70;;;4.60;;
34657;SDS011;20865;43.312;27.152;2023-07-20T02:27:36;24.85;;;5.22;;
34657;SDS011;20865;43.312;27.152;2023-07-20T02:30:04;15.78;;;4.10;;
34657;SDS011;20865;43.312;27.152;2023-07-20T02:32:33;28.95;;;5.55;;
34657;SDS011;20865;43.312;27.152;2023-07-20T02:35:01;16.07;;;4.75;;
34657;SDS011;20865;43.312;27.152;2023-07-20T02:37:29;30.12;;;5.45;;
34657;SDS011;20865;43.312;27.152;2023-07-20T02:39:57;8.53;;;4.45;;
34657;SDS011;20865;43.312;27.152;2023-07-20T02:42:24;19.82;;;4.60;;
34657;SDS011;20865;43.312;27.152;2023-07-20T02:44:53;20.02;;;4.78;;
34657;SDS011;20865;43.312;27.152;2023-07-20T02:47:21;17.20;;;5.17;;
34657;SDS011;20865;43.312;27.152;2023-07-20T02:49:48;17.15;;;4.25;;
34657;SDS011;20865;43.312;27.152;2023-07-20T02:52:16;16.37;;;4.50;;
34657;SDS011;20865;43.312;27.152;2023-07-20T02:54:43;20.45;;;4.75;;
34657;SDS011;20865;43.312;27.152;2023-07-20T02:57:11;19.42;;;4.53;;
34657;SDS011;20865;43.312;27.152;2023-07-20T02:59:38;31.45;;;5.33;;
34657;SDS011;20865;43.312;27.152;2023-07-20T03:02:06;12.10;;;4.33;;
34657;SDS011;20865;43.312;27.152;2023-07-20T03:04:35;20.55;;;4.28;;
34657;SDS011;20865;43.312;27.152;2023-07-20T03:07:04;29.10;;;6.95;;
34657;SDS011;20865;43.312;27.152;2023-07-20T03:09:33;18.10;;;4.67;;
34657;SDS011;20865;43.312;27.152;2023-07-20T03:12:01;23.40;;;4.53;;
34657;SDS011;20865;43.312;27.152;2023-07-20T03:14:30;21.10;;;4.45;;
34657;SDS011;20865;43.312;27.152;2023-07-20T03:16:57;12.88;;;4.42;;
34657;SDS011;20865;43.312;27.152;2023-07-20T03:19:25;24.27;;;4.67;;
34657;SDS011;20865;43.312;27.152;2023-07-20T03:21:53;23.05;;;4.90;;
34657;SDS011;20865;43.312;27.152;2023-07-20T03:24:21;16.97;;;5.65;;
34657;SDS011;20865;43.312;27.152;2023-07-20T03:26:49;19.55;;;4.62;;
34657;SDS011;20865;43.312;27.152;2023-07-20T03:29:17;28.77;;;5.78;;
34657;SDS011;20865;43.312;27.152;2023-07-20T03:31:45;15.40;;;4.92;;
34657;SDS011;20865;43.312;27.152;2023-07-20T03:34:12;26.52;;;4.87;;
34657;SDS011;20865;43.312;27.152;2023-07-20T03:36:40;16.73;;;5.87;;
34657;SDS011;20865;43.312;27.152;2023-07-20T03:39:07;30.05;;;5.22;;
34657;SDS011;20865;43.312;27.152;2023-07-20T03:41:35;26.45;;;5.37;;
34657;SDS011;20865;43.312;27.152;2023-07-20T03:44:03;29.18;;;5.00;;
34657;SDS011;20865;43.312;27.152;2023-07-20T03:46:30;21.05;;;6.47;;
34657;SDS011;20865;43.312;27.152;2023-07-20T03:48:59;15.93;;;5.22;;
34657;SDS011;20865;43.312;27.152;2023-07-20T03:51:27;29.70;;;5.15;;
34657;SDS011;20865;43.312;27.152;2023-07-20T03:53:55;24.45;;;4.97;;
34657;SDS011;20865;43.312;27.152;2023-07-20T03:56:22;19.57;;;5.08;;
34657;SDS011;20865;43.312;27.152;2023-07-20T03:58:50;19.20;;;5.60;;
34657;SDS011;20865;43.312;27.152;2023-07-20T04:01:17;12.18;;;4.10;;
34657;SDS011;20865;43.312;27.152;2023-07-20T04:03:45;14.58;;;4.70;;
34657;SDS011;20865;43.312;27.152;2023-07-20T04:06:13;15.98;;;6.62;;
34657;SDS011;20865;43.312;27.152;2023-07-20T04:08:42;18.65;;;4.80;;
34657;SDS011;20865;43.312;27.152;2023-07-20T04:11:12;19.67;;;5.87;;
34657;SDS011;20865;43.312;27.152;2023-07-20T04:13:41;9.45;;;4.55;;
34657;SDS011;20865;43.312;27.152;2023-07-20T04:16:08;10.80;;;5.30;;
34657;SDS011;20865;43.312;27.152;2023-07-20T04:18:36;16.10;;;5.50;;
34657;SDS011;20865;43.312;27.152;2023-07-20T04:21:04;22.20;;;5.75;;
34657;SDS011;20865;43.312;27.152;2023-07-20T04:23:32;21.68;;;4.85;;
34657;SDS011;20865;43.312;27.152;2023-07-20T04:26:06;15.15;;;4.83;;
34657;SDS011;20865;43.312;27.152;2023-07-20T04:28:32;24.95;;;5.22;;
34657;SDS011;20865;43.312;27.152;2023-07-20T04:31:12;27.93;;;5.75;;
34657;SDS011;20865;43.312;27.152;2023-07-20T04:33:40;15.03;;;5.08;;
34657;SDS011;20865;43.312;27.152;2023-07-20T04:36:08;17.25;;;5.12;;
34657;SDS011;20865;43.312;27.152;2023-07-20T04:38:36;27.67;;;4.72;;
34657;SDS011;20865;43.312;27.152;2023-07-20T04:41:03;14.70;;;4.70;;
34657;SDS011;20865;43.312;27.152;2023-07-20T04:43:31;10.30;;;4.35;;
34657;SDS011;20865;43.312;27.152;2023-07-20T04:45:58;10.18;;;5.10;;
34657;SDS011;20865;43.312;27.152;2023-07-20T04:48:26;20.48;;;5.58;;
34657;SDS011;20865;43.312;27.152;2023-07-20T04:50:53;14.95;;;4.97;;
34657;SDS011;20865;43.312;27.152;2023-07-20T04:53:21;11.68;;;5.70;;
34657;SDS011;20865;43.312;27.152;2023-07-20T04:55:49;19.85;;;5.45;;
34657;SDS011;20865;43.312;27.152;2023-07-20T04:58:20;26.55;;;5.95;;
34657;SDS011;20865;43.312;27.152;2023-07-20T05:00:49;18.15;;;4.55;;
34657;SDS011;20865;43.312;27.152;2023-07-20T05:03:17;15.48;;;5.03;;
34657;SDS011;20865;43.312;27.152;2023-07-20T05:05:46;29.77;;;4.97;;
34657;SDS011;20865;43.312;27.152;2023-07-20T05:08:14;25.77;;;5.20;;
34657;SDS011;20865;43.312;27.152;2023-07-20T05:10:42;14.33;;;5.28;;
34657;SDS011;20865;43.312;27.152;2023-07-20T05:13:09;27.85;;;4.50;;
34657;SDS011;20865;43.312;27.152;2023-07-20T05:15:37;14.60;;;4.47;;
34657;SDS011;20865;43.312;27.152;2023-07-20T05:18:04;35.43;;;5.10;;
34657;SDS011;20865;43.312;27.152;2023-07-20T05:20:32;31.45;;;5.70;;
34657;SDS011;20865;43.312;27.152;2023-07-20T05:23:00;21.80;;;5.20;;
34657;SDS011;20865;43.312;27.152;2023-07-20T05:25:28;12.23;;;4.60;;
34657;SDS011;20865;43.312;27.152;2023-07-20T05:27:56;16.62;;;4.37;;
34657;SDS011;20865;43.312;27.152;2023-07-20T05:30:23;26.37;;;5.20;;
34657;SDS011;20865;43.312;27.152;2023-07-20T05:32:51;28.27;;;4.25;;
34657;SDS011;20865;43.312;27.152;2023-07-20T05:35:20;19.35;;;4.12;;
34657;SDS011;20865;43.312;27.152;2023-07-20T05:37:48;19.50;;;4.15;;
34657;SDS011;20865;43.312;27.152;2023-07-20T05:40:15;13.45;;;4.60;;
34657;SDS011;20865;43.312;27.152;2023-07-20T05:42:47;12.33;;;4.80;;
34657;SDS011;20865;43.312;27.152;2023-07-20T05:45:17;20.77;;;4.33;;
34657;SDS011;20865;43.312;27.152;2023-07-20T05:47:46;18.92;;;4.83;;
34657;SDS011;20865;43.312;27.152;2023-07-20T05:50:14;25.45;;;4.20;;
34657;SDS011;20865;43.312;27.152;2023-07-20T05:52:41;18.95;;;4.35;;
34657;SDS011;20865;43.312;27.152;2023-07-20T05:55:09;13.88;;;4.12;;
34657;SDS011;20865;43.312;27.152;2023-07-20T05:57:36;9.05;;;4.03;;
34657;SDS011;20865;43.312;27.152;2023-07-20T19:15:29;6.37;;;2.30;;
34657;SDS011;20865;43.312;27.152;2023-07-20T19:17:57;5.60;;;2.17;;
34657;SDS011;20865;43.312;27.152;2023-07-20T19:20:25;6.35;;;2.12;;
34657;SDS011;20865;43.312;27.152;2023-07-20T19:22:52;7.75;;;2.20;;
34657;SDS011;20865;43.312;27.152;2023-07-20T19:25:20;6.50;;;1.90;;
34657;SDS011;20865;43.312;27.152;2023-07-20T19:27:48;4.33;;;1.70;;
34657;SDS011;20865;43.312;27.152;2023-07-20T19:30:17;6.55;;;2.72;;
34657;SDS011;20865;43.312;27.152;2023-07-20T19:32:45;7.62;;;2.80;;
34657;SDS011;20865;43.312;27.152;2023-07-20T19:35:12;8.20;;;2.33;;
34657;SDS011;20865;43.312;27.152;2023-07-20T19:37:40;7.42;;;2.95;;
34657;SDS011;20865;43.312;27.152;2023-07-20T19:40:10;13.13;;;3.27;;
34657;SDS011;20865;43.312;27.152;2023-07-20T19:42:37;13.05;;;3.02;;
34657;SDS011;20865;43.312;27.152;2023-07-20T19:45:05;8.88;;;3.65;;
34657;SDS011;20865;43.312;27.152;2023-07-20T19:47:35;8.25;;;3.30;;
34657;SDS011;20865;43.312;27.152;2023-07-20T19:50:03;9.50;;;3.70;;
34657;SDS011;20865;43.312;27.152;2023-07-20T19:52:32;17.67;;;3.55;;
34657;SDS011;20865;43.312;27.152;2023-07-20T19:55:00;9.15;;;3.02;;
34657;SDS011;20865;43.312;27.152;2023-07-20T19:57:30;12.00;;;3.08;;
34657;SDS011;20865;43.312;27.152;2023-07-20T19:59:57;8.55;;;3.52;;
34657;SDS011;20865;43.312;27.152;2023-07-20T20:02:29;6.15;;;3.80;;
34657;SDS011;20865;43.312;27.152;2023-07-20T20:04:57;6.47;;;3.17;;
34657;SDS011;20865;43.312;27.152;2023-07-20T20:07:24;8.23;;;3.35;;
34657;SDS011;20865;43.312;27.152;2023-07-20T20:09:52;19.37;;;3.95;;
34657;SDS011;20865;43.312;27.152;2023-07-20T20:12:20;7.30;;;3.60;;
34657;SDS011;20865;43.312;27.152;2023-07-20T20:14:49;14.35;;;3.58;;
34657;SDS011;20865;43.312;27.152;2023-07-20T20:17:16;8.08;;;3.50;;
34657;SDS011;20865;43.312;27.152;2023-07-20T20:19:44;10.68;;;3.83;;
34657;SDS011;20865;43.312;27.152;2023-07-20T20:22:13;9.70;;;3.52;;
34657;SDS011;20865;43.312;27.152;2023-07-20T20:24:41;8.83;;;3.67;;
34657;SDS011;20865;43.312;27.152;2023-07-20T20:27:09;10.43;;;4.17;;
34657;SDS011;20865;43.312;27.152;2023-07-20T20:29:39;9.13;;;4.28;;
34657;SDS011;20865;43.312;27.152;2023-07-20T20:32:06;13.83;;;4.08;;
34657;SDS011;20865;43.312;27.152;2023-07-20T20:34:36;11.97;;;4.00;;
34657;SDS011;20865;43.312;27.152;2023-07-20T20:37:04;9.98;;;3.58;;
34657;SDS011;20865;43.312;27.152;2023-07-20T20:39:32;13.62;;;4.92;;
34657;SDS011;20865;43.312;27.152;2023-07-20T20:41:59;10.38;;;4.03;;
34657;SDS011;20865;43.312;27.152;2023-07-20T20:44:27;17.95;;;3.72;;
34657;SDS011;20865;43.312;27.152;2023-07-20T20:46:54;13.93;;;4.22;;
34657;SDS011;20865;43.312;27.152;2023-07-20T20:49:24;7.50;;;3.77;;
34657;SDS011;20865;43.312;27.152;2023-07-20T20:51:51;9.83;;;3.77;;
34657;SDS011;20865;43.312;27.152;2023-07-20T20:54:19;9.05;;;4.12;;
34657;SDS011;20865;43.312;27.152;2023-07-20T20:56:47;6.92;;;3.40;;
34657;SDS011;20865;43.312;27.152;2023-07-20T20:59:15;7.20;;;3.22;;
34657;SDS011;20865;43.312;27.152;2023-07-20T21:01:44;7.67;;;3.80;;
34657;SDS011;20865;43.312;27.152;2023-07-20T21:04:13;7.85;;;4.05;;
34657;SDS011;20865;43.312;27.152;2023-07-20T21:06:40;6.15;;;3.55;;
34657;SDS011;20865;43.312;27.152;2023-07-20T21:09:08;15.90;;;4.42;;
34657;SDS011;20865;43.312;27.152;2023-07-20T21:11:36;8.95;;;3.72;;
34657;SDS011;20865;43.312;27.152;2023-07-20T21:14:03;10.03;;;3.98;;
34657;SDS011;20865;43.312;27.152;2023-07-20T21:16:31;12.10;;;4.47;;
34657;SDS011;20865;43.312;27.152;2023-07-20T21:18:58;15.38;;;5.15;;
34657;SDS011;20865;43.312;27.152;2023-07-20T21:21:26;10.65;;;4.12;;
34657;SDS011;20865;43.312;27.152;2023-07-20T21:23:54;7.70;;;4.08;;
34657;SDS011;20865;43.312;27.152;2023-07-20T21:26:21;14.25;;;4.05;;
34657;SDS011;20865;43.312;27.152;2023-07-20T21:28:49;10.00;;;3.98;;
34657;SDS011;20865;43.312;27.152;2023-07-20T21:31:18;11.22;;;4.33;;
34657;SDS011;20865;43.312;27.152;2023-07-20T21:33:45;13.62;;;3.90;;
34657;SDS011;20865;43.312;27.152;2023-07-20T21:36:15;13.72;;;4.33;;
34657;SDS011;20865;43.312;27.152;2023-07-20T21:38:44;8.43;;;3.83;;
34657;SDS011;20865;43.312;27.152;2023-07-20T21:41:11;12.33;;;4.47;;
34657;SDS011;20865;43.312;27.152;2023-07-20T21:43:40;10.05;;;4.60;;
34657;SDS011;20865;43.312;27.152;2023-07-20T21:46:08;10.98;;;4.87;;
34657;SDS011;20865;43.312;27.152;2023-07-20T21:48:35;11.30;;;4.40;;
34657;SDS011;20865;43.312;27.152;2023-07-20T21:51:05;8.05;;;4.47;;
34657;SDS011;20865;43.312;27.152;2023-07-20T21:53:33;13.28;;;4.30;;
34657;SDS011;20865;43.312;27.152;2023-07-20T21:56:00;8.85;;;4.33;;
34657;SDS011;20865;43.312;27.152;2023-07-20T21:58:28;12.33;;;4.22;;
34657;SDS011;20865;43.312;27.152;2023-07-20T22:00:56;12.10;;;4.17;;
34657;SDS011;20865;43.312;27.152;2023-07-20T22:03:25;14.03;;;4.33;;
34657;SDS011;20865;43.312;27.152;2023-07-20T22:05:53;8.60;;;4.20;;
34657;SDS011;20865;43.312;27.152;2023-07-20T22:08:21;7.62;;;4.53;;
34657;SDS011;20865;43.312;27.152;2023-07-20T22:10:49;9.85;;;3.80;;
34657;SDS011;20865;43.312;27.152;2023-07-20T22:13:17;9.28;;;4.72;;
34657;SDS011;20865;43.312;27.152;2023-07-20T22:15:45;17.67;;;6.30;;
34657;SDS011;20865;43.312;27.152;2023-07-20T22:18:14;12.05;;;4.90;;
34657;SDS011;20865;43.312;27.152;2023-07-20T22:20:43;14.73;;;4.22;;
34657;SDS011;20865;43.312;27.152;2023-07-20T22:23:10;8.45;;;4.20;;
34657;SDS011;20865;43.312;27.152;2023-07-20T22:25:38;9.10;;;4.30;;
34657;SDS011;20865;43.312;27.152;2023-07-20T22:28:05;12.00;;;4.62;;
34657;SDS011;20865;43.312;27.152;2023-07-20T22:30:33;8.93;;;4.47;;
34657;SDS011;20865;43.312;27.152;2023-07-20T22:33:01;10.93;;;4.80;;
34657;SDS011;20865;43.312;27.152;2023-07-20T22:35:29;8.65;;;4.00;;
34657;SDS011;20865;43.312;27.152;2023-07-20T22:37:56;10.88;;;5.50;;
34657;SDS011;20865;43.312;27.152;2023-07-20T22:40:24;10.88;;;4.53;;
34657;SDS011;20865;43.312;27.152;2023-07-20T22:42:51;8.80;;;4.75;;
34657;SDS011;20865;43.312;27.152;2023-07-20T22:45:19;8.70;;;4.50;;
34657;SDS011;20865;43.312;27.152;2023-07-20T22:47:46;10.98;;;4.58;;
34657;SDS011;20865;43.312;27.152;2023-07-20T22:50:14;8.98;;;4.22;;
34657;SDS011;20865;43.312;27.152;2023-07-20T22:52:43;9.15;;;4.15;;
34657;SDS011;20865;43.312;27.152;2023-07-20T22:55:12;13.55;;;4.10;;
34657;SDS011;20865;43.312;27.152;2023-07-20T22:57:39;12.50;;;4.28;;
34657;SDS011;20865;43.312;27.152;2023-07-20T23:00:07;8.10;;;4.55;;
34657;SDS011;20865;43.312;27.152;2023-07-20T23:02:37;7.33;;;3.83;;
34657;SDS011;20865;43.312;27.152;2023-07-20T23:05:07;9.88;;;4.58;;
34657;SDS011;20865;43.312;27.152;2023-07-20T23:07:35;9.50;;;4.58;;
34657;SDS011;20865;43.312;27.152;2023-07-20T23:10:03;7.05;;;4.15;;
34657;SDS011;20865;43.312;27.152;2023-07-20T23:12:33;9.85;;;4.05;;
34657;SDS011;20865;43.312;27.152;2023-07-20T23:15:01;9.70;;;4.25;;
34657;SDS011;20865;43.312;27.152;2023-07-20T23:17:29;10.43;;;4.30;;
34657;SDS011;20865;43.312;27.152;2023-07-20T23:19:58;8.75;;;4.30;;
34657;SDS011;20865;43.312;27.152;2023-07-20T23:22:26;8.48;;;4.20;;
34657;SDS011;20865;43.312;27.152;2023-07-20T23:24:55;5.30;;;3.72;;
34657;SDS011;20865;43.312;27.152;2023-07-20T23:27:22;7.05;;;4.25;;
34657;SDS011;20865;43.312;27.152;2023-07-20T23:29:50;8.13;;;4.42;;
34657;SDS011;20865;43.312;27.152;2023-07-20T23:32:17;8.43;;;4.60;;
34657;SDS011;20865;43.312;27.152;2023-07-20T23:34:45;12.85;;;4.00;;
34657;SDS011;20865;43.312;27.152;2023-07-20T23:37:12;8.08;;;4.53;;
34657;SDS011;20865;43.312;27.152;2023-07-20T23:39:40;8.13;;;4.90;;
34657;SDS011;20865;43.312;27.152;2023-07-20T23:42:09;7.05;;;4.15;;
34657;SDS011;20865;43.312;27.152;2023-07-20T23:44:36;9.10;;;3.92;;
34657;SDS011;20865;43.312;27.152;2023-07-20T23:47:05;10.98;;;3.83;;
34657;SDS011;20865;43.312;27.152;2023-07-20T23:49:34;9.30;;;4.55;;
34657;SDS011;20865;43.312;27.152;2023-07-20T23:52:03;12.85;;;4.72;;
34657;SDS011;20865;43.312;27.152;2023-07-20T23:54:31;8.48;;;4.05;;
34657;SDS011;20865;43.312;27.152;2023-07-20T23:56:58;8.10;;;4.15;;
34657;SDS011;20865;43.312;27.152;2023-07-20T23:59:26;12.63;;;4.28;;
